Time;durP1;ratioP1;P1;durP2;ratioP2;P2;SDS_P1;SDS_P2;PMS_P1;PMS_P2;Temp;Humidity;BMP_temperature;BMP_pressure;BME280_temperature;BME280_humidity;BME280_pressure;Samples;Min_cycle;Max_cycle;Signal;HPM_P1;HPM_P2
2021/01/26 00:00:00;;;;;;;20.20;11.32;;;;;;;6.40;95.96;96915.84;3440867;28;20053;-58
2021/01/26 00:01:41;;;;;;;20.85;10.75;;;;;;;6.39;95.88;96910.72;3437276;28;20516;-49
2021/01/26 00:03:23;;;;;;;17.70;12.23;;;;;;;6.36;95.79;96906.47;3439114;28;20436;-50
2021/01/26 00:05:06;;;;;;;17.70;11.75;;;;;;;6.36;95.79;96906.47;3438218;28;20108;-50
2021/01/26 00:06:48;;;;;;;20.55;12.45;;;;;;;6.37;95.94;96907.34;3439717;28;20042;-48
2021/01/26 00:08:30;;;;;;;18.75;12.48;;;;;;;6.34;95.94;96910.78;3439285;28;20046;-50
2021/01/26 00:10:13;;;;;;;20.42;12.32;;;;;;;6.34;95.86;96909.94;3438714;28;20057;-49
2021/01/26 00:11:55;;;;;;;19.58;12.35;;;;;;;6.31;95.81;96903.09;3439304;28;20053;-52
2021/01/26 00:13:36;;;;;;;18.73;12.50;;;;;;;6.30;96.03;96904.00;3437501;28;20046;-51
2021/01/26 00:15:19;;;;;;;19.73;13.13;;;;;;;6.28;96.04;96914.31;3440123;28;20054;-52
2021/01/26 00:17:00;;;;;;;18.73;12.70;;;;;;;6.25;95.95;96909.19;3438500;28;20046;-51
2021/01/26 00:18:44;;;;;;;21.50;13.07;;;;;;;6.24;95.99;96904.94;3440953;28;20149;-52
2021/01/26 00:20:26;;;;;;;17.65;11.55;;;;;;;6.22;95.88;96906.66;3434737;28;20051;-53
2021/01/26 00:22:07;;;;;;;21.83;12.88;;;;;;;6.20;95.96;96899.84;3427844;28;20054;-58
2021/01/26 00:23:49;;;;;;;22.75;13.18;;;;;;;6.19;95.94;96922.16;3437140;28;20093;-57
2021/01/26 00:25:34;;;;;;;17.60;11.65;;;;;;;6.17;96.02;96911.03;3441506;28;20589;-58
2021/01/26 00:27:16;;;;;;;18.80;12.60;;;;;;;6.16;96.18;96911.91;3438487;28;20051;-52
2021/01/26 00:28:57;;;;;;;17.40;11.80;;;;;;;6.15;96.26;96912.75;3441223;28;20054;-52
2021/01/26 00:30:40;;;;;;;21.08;13.18;;;;;;;6.12;96.25;96903.38;3439238;28;20047;-50
2021/01/26 00:32:22;;;;;;;17.80;11.38;;;;;;;6.12;95.97;96899.94;3439738;28;20404;-50
2021/01/26 00:34:04;;;;;;;16.42;10.90;;;;;;;6.11;95.97;96906.78;3439531;28;20054;-50
2021/01/26 00:35:47;;;;;;;17.80;12.02;;;;;;;6.10;96.08;96906.81;3439727;28;20129;-52
2021/01/26 00:37:28;;;;;;;18.27;12.15;;;;;;;6.09;96.20;96905.13;3438247;28;20050;-55
2021/01/26 00:39:10;;;;;;;19.92;12.25;;;;;;;6.08;96.18;96906.00;3440786;28;20507;-53
2021/01/26 00:40:52;;;;;;;20.48;12.60;;;;;;;6.07;96.32;96901.72;3439942;28;20466;-49
2021/01/26 00:42:34;;;;;;;20.30;12.98;;;;;;;6.03;95.90;96903.50;3438591;28;20058;-52
2021/01/26 00:44:16;;;;;;;18.90;12.05;;;;;;;6.04;96.33;96901.75;3440042;28;20491;-53
2021/01/26 00:45:57;;;;;;;17.48;11.25;;;;;;;6.03;96.29;96902.63;3432165;28;20106;-52
2021/01/26 00:47:39;;;;;;;19.40;10.90;;;;;;;6.02;96.35;96893.22;3430463;28;20522;-54
2021/01/26 00:49:22;;;;;;;15.13;10.65;;;;;;;6.01;96.17;96891.50;3439332;28;20515;-49
2021/01/26 00:51:04;;;;;;;17.60;11.10;;;;;;;6.00;96.23;96905.25;3431804;28;20058;-53
2021/01/26 00:52:46;;;;;;;18.90;12.20;;;;;;;5.98;96.13;96912.13;3439190;28;20443;-52
2021/01/26 00:54:27;;;;;;;19.42;12.88;;;;;;;5.94;96.22;96909.59;3440569;28;20058;-53
2021/01/26 00:56:09;;;;;;;18.75;12.77;;;;;;;5.88;96.07;96929.41;3438548;28;20051;-50
2021/01/26 00:57:52;;;;;;;6.28;3.30;;;;;;;5.53;92.24;96939.22;3441376;28;20058;-51
2021/01/26 00:59:33;;;;;;;3.28;1.92;;;;;;;5.08;90.88;96941.38;3440529;28;20145;-50
2021/01/26 01:01:15;;;;;;;3.20;1.88;;;;;;;4.66;91.10;96948.56;3443378;28;20081;-53
2021/01/26 01:02:57;;;;;;;3.88;2.25;;;;;;;4.28;91.92;96953.91;3440827;28;20500;-49
2021/01/26 01:04:39;;;;;;;2.22;1.25;;;;;;;3.98;91.79;96977.16;3442279;28;20061;-55
2021/01/26 01:06:21;;;;;;;1.90;1.40;;;;;;;3.70;91.81;96972.97;3442269;28;20058;-53
2021/01/26 01:08:03;;;;;;;3.38;1.23;;;;;;;3.50;91.99;96971.31;3441762;28;20050;-53
2021/01/26 01:09:45;;;;;;;2.22;1.50;;;;;;;3.23;92.11;96975.63;3442170;28;20831;-50
2021/01/26 01:11:30;;;;;;;2.97;2.10;;;;;;;3.06;92.88;96977.34;3441436;28;20046;-50
2021/01/26 01:13:12;;;;;;;4.22;2.10;;;;;;;2.85;93.17;96973.06;3442319;28;20053;-52
2021/01/26 01:14:54;;;;;;;2.58;1.92;;;;;;;2.75;93.30;96972.22;3441296;28;20046;-52
2021/01/26 01:16:35;;;;;;;4.22;2.25;;;;;;;2.64;93.65;96984.13;3442655;28;20062;-56
2021/01/26 01:18:17;;;;;;;3.05;2.20;;;;;;;2.54;94.32;96988.41;3441143;28;20051;-57
2021/01/26 01:19:59;;;;;;;2.90;2.17;;;;;;;2.45;93.75;96983.28;3442891;28;20084;-57
2021/01/26 01:21:41;;;;;;;4.13;2.75;;;;;;;2.33;93.71;96997.72;3441171;28;20050;-55
2021/01/26 01:23:23;;;;;;;2.95;1.98;;;;;;;2.23;93.78;96995.13;3443042;28;20047;-56
2021/01/26 01:25:06;;;;;;;3.60;2.47;;;;;;;2.15;93.62;96995.13;3440639;28;20051;-54
2021/01/26 01:26:49;;;;;;;5.45;3.63;;;;;;;2.09;94.01;97005.31;3443010;28;20097;-54
2021/01/26 01:28:31;;;;;;;4.93;3.10;;;;;;;2.01;94.04;97001.91;3440580;28;20054;-56
2021/01/26 01:30:16;;;;;;;3.40;2.78;;;;;;;1.95;94.07;97010.38;3443342;28;20054;-51
2021/01/26 01:31:58;;;;;;;4.40;2.90;;;;;;;1.89;94.23;97023.13;3440211;28;20105;-53
2021/01/26 01:33:39;;;;;;;2.50;2.05;;;;;;;1.85;93.93;97026.53;3442088;28;20050;-53
2021/01/26 01:35:22;;;;;;;3.95;3.00;;;;;;;1.81;93.91;97035.00;3441776;28;20451;-54
2021/01/26 01:37:04;;;;;;;6.63;3.80;;;;;;;1.75;94.10;97030.72;3441454;28;20054;-56
2021/01/26 01:38:45;;;;;;;6.35;4.03;;;;;;;1.68;94.30;97042.59;3441854;28;20050;-54
2021/01/26 01:40:30;;;;;;;4.80;2.95;;;;;;;1.64;94.27;97046.00;3441318;28;20057;-54
2021/01/26 01:42:13;;;;;;;4.68;3.03;;;;;;;1.58;93.98;97056.16;3441958;28;20061;-54
2021/01/26 01:43:54;;;;;;;5.22;2.90;;;;;;;1.54;93.90;97073.16;3441149;28;20054;-55
2021/01/26 01:45:36;;;;;;;3.83;3.10;;;;;;;1.50;94.10;97063.78;3434654;28;20074;-55
2021/01/26 01:47:21;;;;;;;4.05;2.85;;;;;;;1.47;93.67;97066.31;3441070;28;20042;-55
2021/01/26 01:49:06;;;;;;;4.75;2.35;;;;;;;1.45;94.07;97069.72;3442043;28;20050;-56
2021/01/26 01:50:51;;;;;;;3.80;2.85;;;;;;;1.42;94.12;97070.53;3441284;28;20050;-55
2021/01/26 01:52:36;;;;;;;3.38;2.80;;;;;;;1.39;93.91;97070.53;3442601;28;20097;-55
2021/01/26 01:54:23;;;;;;;3.85;2.95;;;;;;;1.37;94.01;97087.50;3436896;28;20051;-54
2021/01/26 01:56:09;;;;;;;4.63;2.53;;;;;;;1.34;94.25;97095.16;3441647;28;20807;-54
2021/01/26 01:57:56;;;;;;;4.20;2.63;;;;;;;1.31;94.16;97098.53;3440345;28;20073;-54
2021/01/26 01:59:44;;;;;;;4.82;3.42;;;;;;;1.29;94.54;97094.28;3442393;28;20054;-52
2021/01/26 02:01:29;;;;;;;5.00;3.22;;;;;;;1.28;94.60;97102.75;3439544;28;20046;-55
2021/01/26 02:03:18;;;;;;;4.55;2.58;;;;;;;1.26;94.75;97100.19;3442899;28;20519;-53
2021/01/26 02:05:03;;;;;;;4.70;3.10;;;;;;;1.24;94.64;97109.53;3438107;28;20082;-51
2021/01/26 02:06:50;;;;;;;4.30;2.65;;;;;;;1.24;94.52;97116.34;3429307;28;20594;-54
2021/01/26 02:08:39;;;;;;;5.55;2.58;;;;;;;1.22;94.54;97118.91;3439191;28;20427;-53
2021/01/26 02:10:23;;;;;;;4.70;3.10;;;;;;;1.20;94.24;97127.41;3441892;28;20054;-55
2021/01/26 02:12:06;;;;;;;4.65;2.75;;;;;;;1.12;94.45;97143.47;3439920;28;20050;-57
2021/01/26 02:13:48;;;;;;;3.88;2.63;;;;;;;1.06;94.59;97145.97;3442674;28;20157;-57
2021/01/26 02:15:30;;;;;;;4.50;2.97;;;;;;;1.04;94.61;97152.75;3439931;28;20050;-50
2021/01/26 02:17:27;;;;;;;5.15;3.20;;;;;;;1.00;94.78;97151.03;3442402;28;20050;-53
2021/01/26 02:19:48;;;;;;;5.93;2.90;;;;;;;0.99;95.06;97146.75;3439936;28;20047;-57
2021/01/26 02:22:17;;;;;;;3.85;2.40;;;;;;;0.98;95.21;97163.78;3442184;28;20047;-57
2021/01/26 02:24:40;;;;;;;4.32;2.72;;;;;;;0.98;94.71;97155.25;3440659;28;20050;-56
2021/01/26 02:26:58;;;;;;;3.72;2.30;;;;;;;0.99;95.01;97165.47;3422844;28;20057;-56
2021/01/26 02:28:56;;;;;;;3.72;2.08;;;;;;;0.99;94.84;97182.50;3428853;28;20054;-55
2021/01/26 02:30:53;;;;;;;4.53;2.92;;;;;;;0.96;94.82;97169.69;3439702;28;20100;-57
2021/01/26 02:32:58;;;;;;;3.80;2.90;;;;;;;0.94;94.79;97182.44;3440562;28;20051;-57
2021/01/26 02:35:10;;;;;;;4.07;2.90;;;;;;;0.93;94.81;97193.50;3441291;28;20085;-54
2021/01/26 02:37:23;;;;;;;4.97;3.15;;;;;;;0.88;94.94;97196.84;3441164;28;20121;-52
2021/01/26 02:39:27;;;;;;;3.63;2.60;;;;;;;0.85;95.00;97207.84;3438002;28;20502;-56
2021/01/26 02:41:17;;;;;;;3.08;2.20;;;;;;;0.83;94.68;97222.28;3438981;28;20057;-54
2021/01/26 02:43:20;;;;;;;4.15;2.65;;;;;;;0.84;94.48;97229.09;3442361;28;20082;-56
2021/01/26 02:45:20;;;;;;;4.93;3.47;;;;;;;0.82;94.51;97218.00;3439361;28;20061;-56
2021/01/26 02:47:19;;;;;;;6.22;3.78;;;;;;;0.80;94.41;97223.09;3429782;28;20057;-53
2021/01/26 02:49:12;;;;;;;8.73;4.50;;;;;;;0.75;94.57;97217.09;3440040;28;20051;-55
2021/01/26 02:51:01;;;;;;;8.65;5.00;;;;;;;0.71;94.60;97228.09;3440963;28;20503;-51
2021/01/26 02:52:53;;;;;;;7.78;4.45;;;;;;;0.67;94.63;97244.19;3439613;28;20077;-56
2021/01/26 02:54:43;;;;;;;9.07;3.45;;;;;;;0.67;94.28;97256.97;3441512;28;20049;-52
2021/01/26 02:56:35;;;;;;;10.82;5.70;;;;;;;0.63;94.33;97242.47;3440236;28;20694;-53
2021/01/26 02:58:24;;;;;;;9.70;5.72;;;;;;;0.62;94.23;97253.47;3441259;28;20081;-53
2021/01/26 03:00:12;;;;;;;8.77;4.68;;;;;;;0.59;94.61;97240.69;3439407;28;20057;-53
2021/01/26 03:01:59;;;;;;;7.57;4.78;;;;;;;0.61;94.39;97257.75;3441577;28;20321;-53
2021/01/26 03:03:46;;;;;;;14.35;6.65;;;;;;;0.55;94.35;97247.44;3439182;28;20096;-52
2021/01/26 03:05:34;;;;;;;11.20;7.18;;;;;;;0.53;94.39;97251.66;3441096;28;20062;-51
2021/01/26 03:07:20;;;;;;;16.63;8.43;;;;;;;0.52;94.47;97247.38;3439669;28;20409;-48
2021/01/26 03:09:06;;;;;;;11.02;5.38;;;;;;;0.53;94.37;97246.56;3441041;28;20050;-51
2021/01/26 03:10:57;;;;;;;12.77;8.00;;;;;;;0.54;94.65;97249.97;3439894;28;20143;-53
2021/01/26 03:12:41;;;;;;;9.77;5.10;;;;;;;0.57;94.00;97244.91;3441395;28;20046;-52
2021/01/26 03:14:29;;;;;;;13.48;6.80;;;;;;;0.60;93.67;97243.25;3439709;28;20069;-54
2021/01/26 03:16:14;;;;;;;12.57;7.43;;;;;;;0.61;93.30;97250.09;3440257;28;20078;-55
2021/01/26 03:18:02;;;;;;;11.57;7.38;;;;;;;0.64;93.21;97235.66;3439582;28;20486;-53
2021/01/26 03:19:50;;;;;;;13.35;7.78;;;;;;;0.66;92.89;97236.53;3441392;28;20084;-56
2021/01/26 03:21:35;;;;;;;14.57;8.30;;;;;;;0.67;92.46;97245.91;3440310;28;20092;-54
2021/01/26 03:23:23;;;;;;;11.48;6.70;;;;;;;0.70;92.84;97249.34;3441539;28;20050;-52
2021/01/26 03:25:07;;;;;;;15.52;7.95;;;;;;;0.71;92.52;97256.16;3439380;28;20050;-57
2021/01/26 03:26:50;;;;;;;14.88;8.38;;;;;;;0.72;92.16;97255.31;3441303;28;20057;-57
2021/01/26 03:28:33;;;;;;;12.23;6.20;;;;;;;0.73;92.19;97262.13;3439354;28;20058;-55
2021/01/26 03:30:20;;;;;;;15.10;9.10;;;;;;;0.73;91.78;97259.56;3441994;28;20046;-57
2021/01/26 03:32:06;;;;;;;14.80;7.07;;;;;;;0.74;91.91;97263.84;3437562;28;20100;-57
2021/01/26 03:33:52;;;;;;;14.05;8.10;;;;;;;0.76;91.82;97279.19;3442056;28;20054;-53
2021/01/26 03:35:34;;;;;;;14.30;7.32;;;;;;;0.77;91.85;97276.66;3439194;28;20137;-52
2021/01/26 03:37:16;;;;;;;16.40;7.97;;;;;;;0.77;91.49;97286.88;3428274;28;20544;-52
2021/01/26 03:39:00;;;;;;;15.40;8.55;;;;;;;0.76;91.04;97292.78;3436179;28;20325;-53
2021/01/26 03:40:42;;;;;;;15.45;8.15;;;;;;;0.77;91.18;97278.34;3441555;28;20061;-53
2021/01/26 03:42:27;;;;;;;16.48;9.45;;;;;;;0.76;91.08;97286.84;3440272;28;20081;-54
2021/01/26 03:44:10;;;;;;;;;;;;;;;0.77;90.80;97299.63;3439836;28;20078;-53
2021/01/26 03:45:58;;;;;;;17.45;7.93;;;;;;;0.81;90.41;97287.75;3440353;28;20417;-55
2021/01/26 03:47:53;;;;;;;17.33;9.82;;;;;;;0.82;90.64;97286.06;3440052;28;20050;-53
2021/01/26 03:50:02;;;;;;;15.10;8.85;;;;;;;0.80;90.07;97297.09;3440370;28;20069;-54
2021/01/26 03:52:08;;;;;;;15.82;8.88;;;;;;;0.79;90.77;97308.16;3441000;28;20065;-54
2021/01/26 03:54:17;;;;;;;14.98;8.82;;;;;;;0.82;89.86;97289.47;3438617;28;20057;-54
2021/01/26 03:56:20;;;;;;;17.35;8.30;;;;;;;0.83;89.84;97306.50;3439604;28;20139;-52
2021/01/26 03:58:19;;;;;;;15.27;8.30;;;;;;;0.84;89.69;97298.00;3435188;28;20066;-53
2021/01/26 04:00:15;;;;;;;15.98;8.82;;;;;;;0.85;89.75;97307.38;3431597;28;20074;-55
2021/01/26 04:02:08;;;;;;;13.18;7.50;;;;;;;0.85;89.75;97322.69;3439469;28;20580;-54
2021/01/26 04:04:02;;;;;;;20.80;11.15;;;;;;;0.85;89.28;97314.19;3440402;28;20050;-53
2021/01/26 04:05:53;;;;;;;19.85;10.30;;;;;;;0.85;89.53;97319.28;3440169;28;20042;-54
2021/01/26 04:07:41;;;;;;;15.88;8.07;;;;;;;0.83;89.71;97321.81;3440576;28;20458;-53
2021/01/26 04:09:27;;;;;;;15.18;7.80;;;;;;;0.82;89.88;97312.44;3439929;28;20535;-53
2021/01/26 04:11:14;;;;;;;14.85;8.82;;;;;;;0.84;89.76;97312.44;3434727;28;20482;-54
2021/01/26 04:13:01;;;;;;;17.02;8.52;;;;;;;0.80;90.01;97322.63;3440731;28;20451;-54
2021/01/26 04:14:51;;;;;;;16.30;8.52;;;;;;;0.78;89.73;97314.09;3440423;28;20054;-53
2021/01/26 04:16:39;;;;;;;17.88;9.32;;;;;;;0.75;89.99;97326.81;3439188;28;20086;-51
2021/01/26 04:18:25;;;;;;;21.42;10.57;;;;;;;0.71;90.41;97319.09;3440390;28;20081;-53
2021/01/26 04:20:11;;;;;;;18.60;10.85;;;;;;;0.66;90.86;97321.56;3440499;28;20054;-54
2021/01/26 04:21:53;;;;;;;17.52;9.15;;;;;;;0.65;91.13;97334.28;3440171;28;20043;-52
2021/01/26 04:23:35;;;;;;;19.70;11.32;;;;;;;0.63;90.71;97341.94;3439725;28;20050;-54
2021/01/26 04:25:32;;;;;;;20.30;10.75;;;;;;;0.66;90.61;97328.38;3438558;28;20057;-54
2021/01/26 04:27:19;;;;;;;19.27;9.40;;;;;;;0.67;90.38;97338.59;3440473;28;20053;-53
2021/01/26 04:29:01;;;;;;;20.17;9.65;;;;;;;0.68;90.19;97344.56;3440393;28;20077;-54
2021/01/26 04:30:43;;;;;;;21.27;11.02;;;;;;;0.71;89.57;97352.25;3432463;28;20460;-51
2021/01/26 04:32:25;;;;;;;19.50;9.90;;;;;;;0.73;89.04;97342.94;3430441;28;20054;-52
2021/01/26 04:34:07;;;;;;;21.00;9.38;;;;;;;0.78;88.83;97359.16;3440602;28;20511;-52
2021/01/26 04:35:49;;;;;;;16.13;8.10;;;;;;;0.77;88.16;97345.56;3443677;28;20062;-49
2021/01/26 04:37:30;;;;;;;17.88;10.35;;;;;;;0.82;87.36;97345.59;3441502;28;20471;-52
2021/01/26 04:39:12;;;;;;;16.90;8.65;;;;;;;0.85;87.49;97363.53;3436590;28;20393;-52
2021/01/26 04:40:55;;;;;;;16.88;9.60;;;;;;;0.85;87.23;97371.19;3441420;28;20137;-49
2021/01/26 04:42:40;;;;;;;13.48;7.60;;;;;;;0.85;87.55;97366.06;3443883;28;20092;-56
2021/01/26 04:44:49;;;;;;;19.00;10.07;;;;;;;0.86;86.83;97365.25;3440851;28;20110;-51
2021/01/26 04:46:36;;;;;;;16.15;7.82;;;;;;;0.87;86.73;97394.19;3442931;28;20069;-52
2021/01/26 04:48:26;;;;;;;16.83;8.80;;;;;;;0.87;86.71;97369.50;3440174;28;20055;-52
2021/01/26 04:50:17;;;;;;;16.75;7.60;;;;;;;0.87;86.49;97382.25;3442987;28;20050;-53
2021/01/26 04:52:08;;;;;;;14.75;8.48;;;;;;;0.88;86.17;97385.69;3440725;28;20061;-52
2021/01/26 04:54:06;;;;;;;16.77;7.97;;;;;;;0.87;86.27;97368.66;3443214;28;20054;-53
2021/01/26 04:56:00;;;;;;;15.25;9.15;;;;;;;0.88;85.69;97383.16;3441386;28;20042;-49
2021/01/26 04:58:00;;;;;;;15.68;7.78;;;;;;;0.88;85.97;97383.16;3442889;28;20081;-53
2021/01/26 05:00:02;;;;;;;15.50;8.50;;;;;;;0.87;86.10;97424.78;3441497;28;20108;-54
2021/01/26 05:01:57;;;;;;;13.60;6.90;;;;;;;0.92;86.08;97402.75;3442471;28;20042;-53
2021/01/26 05:03:54;;;;;;;12.55;6.82;;;;;;;0.93;85.39;97390.03;3441144;28;20089;-54
2021/01/26 05:05:40;;;;;;;14.73;8.57;;;;;;;0.92;85.38;97413.81;3440957;28;20431;-52
2021/01/26 05:07:27;;;;;;;17.90;8.43;;;;;;;0.94;85.55;97407.03;3443021;28;20419;-53
2021/01/26 05:09:15;;;;;;;14.18;8.00;;;;;;;1.02;84.71;97393.53;3442360;28;20057;-51
2021/01/26 05:11:02;;;;;;;13.55;9.23;;;;;;;1.01;84.58;97405.44;3442027;28;20062;-53
2021/01/26 05:12:54;;;;;;;17.13;9.15;;;;;;;0.98;84.80;97418.16;3442447;28;20057;-52
2021/01/26 05:14:39;;;;;;;17.10;8.68;;;;;;;0.97;84.54;97404.53;3440264;28;20046;-53
2021/01/26 05:16:26;;;;;;;14.35;7.85;;;;;;;0.99;84.65;97402.00;3441991;28;20082;-50
2021/01/26 05:18:16;;;;;;;15.70;8.70;;;;;;;1.00;84.50;97424.16;3441628;28;20117;-53
2021/01/26 05:20:04;;;;;;;11.95;5.93;;;;;;;1.02;84.30;97426.72;3442104;28;20053;-53
2021/01/26 05:21:53;;;;;;;14.15;7.97;;;;;;;1.02;84.63;97430.16;3441521;28;20054;-52
2021/01/26 05:23:41;;;;;;;15.15;8.23;;;;;;;1.02;84.42;97430.16;3441628;28;20423;-50
2021/01/26 05:25:24;;;;;;;15.38;7.90;;;;;;;1.01;85.02;97438.63;3431032;28;20085;-50
2021/01/26 05:27:07;;;;;;;14.65;7.85;;;;;;;1.00;84.32;97442.03;3436036;28;20049;-52
2021/01/26 05:28:50;;;;;;;12.98;7.00;;;;;;;1.01;84.24;97456.50;3440766;28;20054;-49
2021/01/26 05:30:34;;;;;;;13.18;7.97;;;;;;;1.03;83.77;97438.66;3442049;28;20050;-50
2021/01/26 05:32:16;;;;;;;13.65;7.95;;;;;;;1.06;84.23;97474.44;3440015;28;20078;-51
2021/01/26 05:34:06;;;;;;;10.85;5.80;;;;;;;1.11;83.06;97462.63;3442382;28;20132;-50
2021/01/26 05:35:53;;;;;;;11.13;5.85;;;;;;;1.12;83.23;97472.81;3440976;28;20435;-50
2021/01/26 05:37:35;;;;;;;10.65;6.18;;;;;;;1.16;82.36;97492.47;3434640;28;20050;-51
2021/01/26 05:39:22;;;;;;;12.73;7.10;;;;;;;1.16;83.02;97459.28;3440861;28;20051;-51
2021/01/26 05:41:09;;;;;;;13.65;6.95;;;;;;;1.16;82.67;97459.28;3432096;28;20042;-53
2021/01/26 05:42:54;;;;;;;14.98;7.68;;;;;;;1.13;82.83;97474.56;3440618;28;20128;-52
2021/01/26 05:44:36;;;;;;;12.20;5.50;;;;;;;1.13;83.46;97458.38;3441516;28;20113;-52
2021/01/26 05:46:35;;;;;;;12.27;7.18;;;;;;;1.12;82.49;97467.72;3440485;28;20117;-52
2021/01/26 05:48:45;;;;;;;12.65;5.97;;;;;;;1.14;82.43;97471.19;3442107;28;20141;-53
2021/01/26 05:50:31;;;;;;;9.95;5.88;;;;;;;1.15;81.88;97469.47;3441248;28;20423;-51
2021/01/26 05:52:13;;;;;;;10.43;6.45;;;;;;;1.18;81.96;97464.44;3441604;28;20050;-51
2021/01/26 05:53:58;;;;;;;10.30;6.00;;;;;;;1.20;80.98;97483.19;3441325;28;20058;-52
2021/01/26 05:55:46;;;;;;;10.15;5.20;;;;;;;1.21;81.80;97456.78;3442324;28;20109;-49
2021/01/26 05:57:30;;;;;;;10.10;5.70;;;;;;;1.22;81.23;97470.44;3439983;28;20050;-50
2021/01/26 05:59:28;;;;;;;9.73;4.57;;;;;;;1.22;81.82;97468.72;3441317;28;20057;-52
2021/01/26 06:01:12;;;;;;;10.50;6.43;;;;;;;1.22;81.72;97467.88;3440670;28;20046;-49
2021/01/26 06:03:09;;;;;;;13.02;6.32;;;;;;;1.21;82.03;97489.97;3442231;28;20451;-54
2021/01/26 06:05:06;;;;;;;9.23;4.82;;;;;;;1.19;82.00;97478.88;3440898;28;20054;-53
2021/01/26 06:06:52;;;;;;;10.05;5.75;;;;;;;1.19;81.79;97484.00;3441878;28;20050;-52
2021/01/26 06:08:48;;;;;;;12.23;5.53;;;;;;;1.20;81.74;97497.66;3440332;28;20062;-53
2021/01/26 06:10:31;;;;;;;13.50;6.22;;;;;;;1.21;81.54;97487.44;3441896;28;20081;-54
2021/01/26 06:12:20;;;;;;;14.68;6.45;;;;;;;1.20;81.94;97503.59;3440928;28;20042;-51
2021/01/26 06:14:09;;;;;;;8.88;5.07;;;;;;;1.20;82.35;97512.97;3441502;28;20054;-52
2021/01/26 06:16:07;;;;;;;12.27;5.35;;;;;;;1.21;81.54;97519.78;3440611;28;20054;-49
2021/01/26 06:17:50;;;;;;;11.55;6.15;;;;;;;1.22;81.89;97531.72;3441668;28;20404;-52
2021/01/26 06:19:32;;;;;;;10.50;5.50;;;;;;;1.23;81.01;97543.63;3440045;28;20145;-54
2021/01/26 06:21:14;;;;;;;9.05;4.22;;;;;;;1.27;81.00;97532.66;3441879;28;20105;-52
2021/01/26 06:23:12;;;;;;;11.55;5.05;;;;;;;1.28;81.45;97531.81;3440981;28;20046;-54
2021/01/26 06:24:56;;;;;;;9.80;5.93;;;;;;;1.26;81.44;97526.66;3441684;28;20470;-52
2021/01/26 06:26:40;;;;;;;11.88;4.88;;;;;;;1.27;81.12;97523.28;3441035;28;20062;-53
2021/01/26 06:28:45;;;;;;;9.93;5.65;;;;;;;1.30;81.73;97532.69;3441675;28;20508;-51
2021/01/26 06:30:39;;;;;;;14.48;7.72;;;;;;;1.29;81.19;97538.66;3437414;28;20078;-53
2021/01/26 06:32:30;;;;;;;17.38;8.00;;;;;;;1.29;81.49;97547.16;3439340;28;20054;-52
2021/01/26 06:34:26;;;;;;;11.20;5.57;;;;;;;1.30;80.95;97564.22;3439673;28;20095;-53
2021/01/26 06:36:30;;;;;;;14.55;6.82;;;;;;;1.33;81.15;97546.34;3434859;28;20061;-54
2021/01/26 06:38:28;;;;;;;9.07;5.18;;;;;;;1.34;81.21;97552.34;3439632;28;20085;-54
2021/01/26 06:40:19;;;;;;;14.75;6.25;;;;;;;1.35;81.40;97554.03;3438243;28;20500;-54
2021/01/26 06:42:14;;;;;;;10.10;6.13;;;;;;;1.37;80.53;97557.47;3441426;28;20389;-55
2021/01/26 06:44:11;;;;;;;14.25;6.25;;;;;;;1.38;81.34;97598.38;3435891;28;20102;-55
2021/01/26 06:46:02;;;;;;;8.40;4.93;;;;;;;1.41;81.03;97558.38;3440123;28;20050;-55
2021/01/26 06:48:08;;;;;;;14.60;6.75;;;;;;;1.40;81.83;97584.78;3438346;28;20058;-51
2021/01/26 06:50:02;;;;;;;13.32;5.78;;;;;;;1.42;80.97;97573.75;3439366;28;20050;-54
2021/01/26 06:52:06;;;;;;;16.65;8.50;;;;;;;1.40;81.69;97583.09;3438283;28;20046;-55
2021/01/26 06:53:59;;;;;;;11.48;5.75;;;;;;;1.40;81.33;97588.19;3438479;28;20054;-55
2021/01/26 06:56:08;;;;;;;17.02;7.15;;;;;;;1.40;82.33;97580.53;3439740;28;20502;-55
2021/01/26 06:58:09;;;;;;;15.88;6.68;;;;;;;1.42;80.75;97596.72;3439089;28;20042;-54
2021/01/26 07:00:22;;;;;;;13.23;6.72;;;;;;;1.42;81.38;97595.88;3439820;28;20046;-51
2021/01/26 07:02:34;;;;;;;12.40;6.50;;;;;;;1.41;81.95;97596.69;3410530;28;20050;-53
2021/01/26 07:04:35;;;;;;;7.55;4.55;;;;;;;1.40;81.30;97607.78;3440188;28;20053;-53
2021/01/26 07:06:34;;;;;;;18.52;8.50;;;;;;;1.40;81.54;97616.28;3438713;28;20194;-53
2021/01/26 07:09:01;;;;;;;24.48;11.38;;;;;;;1.42;81.99;97652.09;3439586;28;20054;-53
2021/01/26 07:11:07;;;;;;;11.48;5.63;;;;;;;1.41;81.92;97629.91;3440848;28;20200;-53
2021/01/26 07:13:10;;;;;;;12.63;6.18;;;;;;;1.41;81.92;97632.47;3435627;28;20090;-50
2021/01/26 07:15:22;;;;;;;17.23;7.47;;;;;;;1.43;81.81;97633.38;3439892;28;20057;-51
2021/01/26 07:17:06;;;;;;;10.50;5.70;;;;;;;1.42;81.73;97631.66;3435980;28;20495;-56
2021/01/26 07:19:07;;;;;;;19.00;8.82;;;;;;;1.41;81.45;97629.91;3440577;28;20081;-56
2021/01/26 07:20:59;;;;;;;12.07;6.72;;;;;;;1.43;80.98;97641.03;3438018;28;20054;-56
2021/01/26 07:23:20;;;;;;;12.05;6.25;;;;;;;1.43;81.37;97649.56;3440603;28;20783;-54
2021/01/26 07:25:13;;;;;;;7.15;3.70;;;;;;;1.48;79.65;97644.53;3439374;28;20058;-57
2021/01/26 07:27:26;;;;;;;6.70;4.15;;;;;;;1.51;80.18;97634.34;3439423;28;20405;-55
2021/01/26 07:29:33;;;;;;;9.95;4.88;;;;;;;1.50;80.55;97655.63;3423068;28;20046;-52
2021/01/26 07:31:19;;;;;;;9.80;5.38;;;;;;;1.51;79.92;97632.66;3433901;28;20065;-53
2021/01/26 07:33:07;;;;;;;9.32;4.85;;;;;;;1.53;79.80;97646.31;3436535;28;20046;-53
2021/01/26 07:34:59;;;;;;;9.20;4.45;;;;;;;1.52;79.86;97652.25;3436751;28;20051;-53
2021/01/26 07:36:46;;;;;;;10.07;5.30;;;;;;;1.54;79.65;97654.84;3437359;28;20487;-52
2021/01/26 07:38:34;;;;;;;8.98;4.28;;;;;;;1.54;79.81;97654.84;3438382;28;20081;-56
2021/01/26 07:40:23;;;;;;;9.98;4.90;;;;;;;1.55;79.63;97659.13;3439351;28;20101;-55
2021/01/26 07:42:11;;;;;;;9.30;4.32;;;;;;;1.56;79.76;97659.16;3438523;28;20058;-55
2021/01/26 07:44:09;;;;;;;9.32;5.10;;;;;;;1.58;79.40;97671.94;3440081;28;20487;-56
2021/01/26 07:45:57;;;;;;;9.23;4.10;;;;;;;1.59;79.88;97675.38;3437669;28;20050;-56
2021/01/26 07:47:45;;;;;;;9.00;4.78;;;;;;;1.59;79.47;97667.72;3439197;28;20050;-55
2021/01/26 07:49:33;;;;;;;11.82;5.80;;;;;;;1.60;80.04;97677.97;3437999;28;20619;-56
2021/01/26 07:51:21;;;;;;;8.90;4.40;;;;;;;1.60;79.38;97677.97;3440451;28;20046;-55
2021/01/26 07:53:17;;;;;;;7.38;4.13;;;;;;;1.59;78.85;97686.44;3438243;28;20054;-55
2021/01/26 07:55:04;;;;;;;8.07;5.10;;;;;;;1.60;79.50;97675.41;3439443;28;20136;-56
2021/01/26 07:56:47;;;;;;;8.55;5.22;;;;;;;1.61;80.07;97684.78;3439006;28;20046;-55
2021/01/26 07:58:29;;;;;;;10.18;4.80;;;;;;;1.60;79.56;97675.41;3440408;28;20057;-56
2021/01/26 08:00:15;;;;;;;9.00;4.75;;;;;;;1.59;79.57;97724.78;3435904;28;20591;-56
2021/01/26 08:02:00;;;;;;;10.70;4.90;;;;;;;1.61;79.46;97694.16;3423488;28;20047;-54
2021/01/26 08:03:44;;;;;;;9.55;4.32;;;;;;;1.61;79.11;97692.44;3435186;28;20053;-55
2021/01/26 08:05:45;;;;;;;9.55;4.75;;;;;;;1.62;78.79;97693.28;3440364;28;20057;-56
2021/01/26 08:07:29;;;;;;;8.88;4.47;;;;;;;1.61;79.28;97691.59;3437704;28;20066;-52
2021/01/26 08:09:15;;;;;;;8.13;4.38;;;;;;;1.61;79.69;97701.81;3439565;28;20498;-50
2021/01/26 08:11:14;;;;;;;5.05;3.10;;;;;;;1.60;78.95;97695.84;3437438;28;20078;-50
2021/01/26 08:12:55;;;;;;;7.20;4.40;;;;;;;1.61;78.41;97689.88;3440286;28;20118;-53
2021/01/26 08:14:41;;;;;;;10.50;3.55;;;;;;;1.63;79.14;97707.81;3437951;28;20078;-56
2021/01/26 08:16:38;;;;;;;7.05;3.80;;;;;;;1.63;78.76;97698.44;3439913;28;20042;-55
2021/01/26 08:18:25;;;;;;;6.35;3.08;;;;;;;1.67;78.88;97717.22;3438905;28;20074;-55
2021/01/26 08:20:11;;;;;;;7.80;3.97;;;;;;;1.64;78.55;97724.88;3440013;28;23436;-55
2021/01/26 08:21:55;;;;;;;6.10;3.65;;;;;;;1.62;78.98;97714.63;3437812;28;20101;-55
2021/01/26 08:23:37;;;;;;;7.32;3.55;;;;;;;1.61;78.72;97733.31;3439736;28;20061;-55
2021/01/26 08:25:26;;;;;;;9.60;3.75;;;;;;;1.62;79.75;97732.50;3438441;28;20141;-55
2021/01/26 08:27:32;;;;;;;7.60;3.83;;;;;;;1.61;79.32;97725.66;3427956;28;20536;-55
2021/01/26 08:30:00;;;;;;;10.32;4.72;;;;;;;1.62;78.19;97744.41;3438914;28;20054;-55
2021/01/26 08:31:42;;;;;;;6.70;3.45;;;;;;;1.61;78.59;97737.59;3414993;28;20055;-56
2021/01/26 08:33:25;;;;;;;6.63;4.00;;;;;;;1.59;78.39;97768.22;3420451;28;20058;-55
2021/01/26 08:35:10;;;;;;;6.28;3.38;;;;;;;1.61;78.37;97737.59;3438218;28;20054;-57
2021/01/26 08:37:24;;;;;;;8.18;4.22;;;;;;;1.60;78.29;97759.72;3438264;28;20133;-53